createdAt,value
2023-04-18T00:00:40.947Z,0.30
2023-04-18T00:03:09.814Z,0.20
2023-04-18T00:05:37.819Z,0.30
2023-04-18T00:08:05.418Z,0.20
2023-04-18T00:10:33.054Z,0.30
2023-04-18T00:13:00.406Z,0.20
2023-04-18T00:15:29.110Z,0.20
2023-04-18T00:17:56.804Z,0.20
2023-04-18T00:20:26.621Z,0.30
2023-04-18T00:22:54.961Z,0.30
2023-04-18T00:25:22.271Z,0.20
2023-04-18T00:27:49.472Z,0.50
2023-04-18T00:30:16.611Z,0.20
2023-04-18T00:32:43.722Z,0.20
2023-04-18T00:35:10.873Z,0.20
2023-04-18T00:37:37.926Z,0.20
2023-04-18T00:40:05.836Z,0.20
2023-04-18T00:42:33.539Z,0.20
2023-04-18T00:45:00.860Z,0.20
2023-04-18T00:47:28.041Z,0.20
2023-04-18T00:49:55.473Z,0.20
2023-04-18T00:52:24.212Z,0.20
2023-04-18T00:54:51.321Z,0.20
2023-04-18T00:57:18.514Z,0.20
2023-04-18T00:59:47.166Z,0.20
2023-04-18T01:02:14.285Z,0.30
2023-04-18T01:04:43.562Z,0.20
2023-04-18T01:07:11.212Z,0.30
2023-04-18T01:09:38.428Z,0.20
2023-04-18T01:12:06.059Z,0.20
2023-04-18T01:14:33.121Z,0.20
2023-04-18T01:17:01.402Z,0.20
2023-04-18T01:19:28.477Z,0.20
2023-04-18T01:21:55.570Z,0.20
2023-04-18T01:24:24.479Z,0.25
2023-04-18T01:26:51.885Z,0.20
2023-04-18T01:29:18.953Z,0.30
2023-04-18T01:31:46.260Z,0.30
2023-04-18T01:34:14.548Z,0.20
2023-04-18T01:36:41.817Z,0.20
2023-04-18T01:39:09.388Z,0.20
2023-04-18T01:41:36.677Z,0.20
2023-04-18T01:44:04.439Z,0.20
2023-04-18T01:46:31.771Z,0.20
2023-04-18T01:48:59.289Z,0.20
2023-04-18T01:51:28.193Z,0.20
2023-04-18T01:53:55.315Z,0.20
2023-04-18T01:56:22.531Z,0.20
2023-04-18T01:58:49.597Z,0.40
2023-04-18T02:01:16.782Z,0.30
2023-04-18T02:03:43.992Z,0.20
2023-04-18T02:06:11.236Z,0.20
2023-04-18T02:08:38.364Z,0.20
2023-04-18T02:11:05.830Z,0.20
2023-04-18T02:13:33.145Z,0.20
2023-04-18T02:16:00.326Z,0.20
2023-04-18T02:18:27.522Z,0.20
2023-04-18T02:20:54.726Z,0.20
2023-04-18T02:23:21.847Z,0.20
2023-04-18T02:25:48.985Z,0.20
2023-04-18T02:28:16.051Z,0.20
2023-04-18T02:30:43.098Z,0.20
2023-04-18T02:33:10.233Z,0.20
2023-04-18T02:35:37.825Z,0.20
2023-04-18T02:38:04.912Z,0.20
2023-04-18T02:40:32.015Z,0.22
2023-04-18T02:42:59.150Z,0.20
2023-04-18T02:45:26.251Z,0.30
2023-04-18T02:47:55.903Z,0.20
2023-04-18T02:50:27.123Z,0.28
2023-04-18T02:52:54.309Z,0.20
2023-04-18T02:55:22.010Z,0.30
2023-04-18T02:57:49.103Z,0.30
2023-04-18T03:00:16.697Z,0.30
2023-04-18T03:02:43.842Z,0.30
2023-04-18T03:05:11.106Z,0.20
2023-04-18T03:07:38.285Z,0.30
2023-04-18T03:10:05.854Z,0.30
2023-04-18T03:12:32.976Z,0.30
2023-04-18T03:15:00.101Z,0.20
2023-04-18T03:17:27.357Z,0.25
2023-04-18T03:19:54.531Z,0.20
2023-04-18T03:22:21.671Z,0.20
2023-04-18T03:24:48.721Z,0.20
2023-04-18T03:27:16.055Z,0.20
2023-04-18T03:29:43.130Z,0.20
2023-04-18T03:32:10.506Z,0.20
2023-04-18T03:34:37.539Z,0.20
2023-04-18T03:37:04.589Z,0.20
2023-04-18T03:39:31.709Z,0.20
2023-04-18T03:41:58.804Z,0.20
2023-04-18T03:44:25.962Z,0.20
2023-04-18T03:46:54.043Z,0.20
2023-04-18T03:49:21.247Z,0.20
2023-04-18T03:51:48.422Z,0.20
2023-04-18T03:54:16.975Z,0.20
2023-04-18T03:56:45.078Z,0.20
2023-04-18T03:59:12.274Z,0.20
2023-04-18T04:01:39.486Z,0.20
2023-04-18T04:04:06.816Z,0.25
2023-04-18T04:06:34.180Z,0.20
2023-04-18T04:09:01.374Z,0.20
2023-04-18T04:11:28.525Z,0.20
2023-04-18T04:13:55.594Z,0.20
2023-04-18T04:16:22.772Z,0.20
2023-04-18T04:18:49.851Z,0.20
2023-04-18T04:21:17.603Z,0.20
2023-04-18T04:23:46.174Z,0.20
2023-04-18T04:26:15.710Z,0.20
2023-04-18T04:28:43.382Z,0.25
2023-04-18T04:31:10.467Z,0.23
2023-04-18T04:33:39.009Z,0.20
2023-04-18T04:36:07.680Z,0.20
2023-04-18T04:38:38.268Z,0.30
2023-04-18T04:41:09.557Z,0.28
2023-04-18T04:43:36.870Z,0.30
2023-04-18T04:46:04.605Z,0.30
2023-04-18T04:48:31.751Z,0.30
2023-04-18T04:51:00.654Z,0.30
2023-04-18T04:53:32.108Z,0.30
2023-04-18T04:55:59.346Z,0.30
2023-04-18T04:58:26.704Z,0.40
2023-04-18T05:00:54.712Z,0.30
2023-04-18T05:03:22.288Z,0.30
2023-04-18T05:05:49.547Z,0.30
2023-04-18T05:08:16.616Z,0.30
2023-04-18T05:10:44.289Z,0.30
2023-04-18T05:13:11.590Z,0.30
2023-04-18T05:15:39.505Z,0.30
2023-04-18T05:18:06.679Z,0.30
2023-04-18T05:20:33.835Z,0.20
2023-04-18T05:23:01.073Z,0.30
2023-04-18T05:25:29.578Z,0.20
2023-04-18T05:27:56.670Z,0.40
2023-04-18T05:30:23.732Z,0.30
2023-04-18T05:32:50.921Z,0.30
2023-04-18T05:35:18.258Z,0.20
2023-04-18T05:37:45.328Z,0.28
2023-04-18T05:40:13.125Z,0.30
2023-04-18T05:42:40.315Z,0.30
2023-04-18T05:45:08.037Z,0.30
2023-04-18T05:47:35.409Z,0.30
2023-04-18T05:50:02.613Z,0.20
2023-04-18T05:52:29.687Z,0.20
2023-04-18T05:54:56.771Z,0.22
2023-04-18T05:57:23.845Z,0.20
2023-04-18T05:59:50.930Z,0.20
2023-04-18T06:02:18.049Z,0.20
2023-04-18T06:04:48.857Z,0.30
2023-04-18T06:07:16.310Z,0.20
2023-04-18T06:09:43.431Z,0.20
2023-04-18T06:12:10.652Z,0.20
2023-04-18T06:14:37.738Z,0.20
2023-04-18T06:17:07.152Z,0.30
2023-04-18T06:19:34.198Z,0.20
2023-04-18T06:22:01.456Z,0.30
2023-04-18T06:24:30.163Z,0.20
2023-04-18T06:26:58.376Z,0.30
2023-04-18T06:29:30.116Z,0.20
2023-04-18T06:31:57.756Z,0.30
2023-04-18T06:34:25.724Z,0.20
2023-04-18T06:36:52.909Z,0.20
2023-04-18T06:39:19.983Z,0.20
2023-04-18T06:41:48.644Z,0.20
2023-04-18T06:44:17.702Z,0.20
2023-04-18T06:46:45.764Z,0.20
2023-04-18T06:49:12.831Z,0.20
2023-04-18T06:51:39.898Z,0.25
2023-04-18T06:54:06.929Z,0.30
2023-04-18T06:56:36.287Z,0.20
2023-04-18T06:59:03.634Z,0.30
2023-04-18T07:01:33.813Z,0.20
2023-04-18T07:04:01.339Z,0.30
2023-04-18T07:06:28.561Z,0.30
2023-04-18T07:08:59.953Z,0.20
2023-04-18T07:11:27.858Z,0.20
2023-04-18T07:13:54.919Z,0.30
2023-04-18T07:16:22.076Z,0.20
2023-04-18T07:18:49.218Z,0.20
2023-04-18T07:21:16.276Z,0.22
2023-04-18T07:23:43.346Z,0.20
2023-04-18T07:26:12.549Z,0.20
2023-04-18T07:28:39.834Z,0.20
2023-04-18T07:31:11.042Z,0.20
2023-04-18T07:33:38.661Z,0.20
2023-04-18T07:36:06.051Z,0.20
2023-04-18T07:38:35.129Z,0.20
2023-04-18T07:41:03.198Z,0.30
2023-04-18T07:43:30.292Z,0.20
2023-04-18T07:45:57.460Z,0.30
2023-04-18T07:48:25.296Z,0.20
2023-04-18T07:50:52.989Z,0.20
2023-04-18T07:53:20.393Z,0.20
2023-04-18T07:55:47.633Z,0.20
2023-04-18T07:58:14.857Z,0.30
2023-04-18T08:00:44.547Z,0.20
2023-04-18T08:03:12.895Z,0.30
2023-04-18T08:05:41.689Z,0.20
2023-04-18T08:08:10.623Z,0.20
2023-04-18T08:10:38.291Z,0.20
2023-04-18T08:13:06.273Z,0.20
2023-04-18T08:15:33.521Z,0.20
2023-04-18T08:18:01.556Z,0.22
2023-04-18T08:20:28.948Z,0.22
2023-04-18T08:25:26.086Z,0.20
2023-04-18T08:27:53.197Z,0.28
2023-04-18T08:30:20.599Z,0.20
2023-04-18T08:32:48.018Z,0.20
2023-04-18T08:35:15.954Z,0.30
2023-04-18T08:37:43.389Z,0.30
2023-04-18T08:40:10.762Z,0.30
2023-04-18T08:42:38.698Z,0.30
2023-04-18T08:45:06.890Z,0.30
2023-04-18T08:47:35.666Z,0.30
2023-04-18T08:50:03.115Z,0.55
2023-04-18T08:52:31.831Z,0.30
2023-04-18T08:54:58.893Z,0.40
2023-04-18T08:57:30.833Z,0.50
2023-04-18T09:00:00.624Z,0.47
2023-04-18T09:02:42.568Z,0.40
2023-04-18T09:05:16.183Z,0.47
2023-04-18T09:07:43.330Z,0.50
2023-04-18T09:10:11.131Z,1.02
2023-04-18T09:12:51.950Z,0.60
2023-04-18T09:15:23.503Z,0.50
2023-04-18T09:17:56.071Z,0.50
2023-04-18T09:20:35.762Z,0.40
2023-04-18T09:23:05.437Z,0.30
2023-04-18T09:25:34.850Z,0.47
2023-04-18T09:28:03.072Z,0.90
2023-04-18T09:30:39.318Z,0.60
2023-04-18T09:33:12.425Z,0.60
2023-04-18T09:35:39.541Z,0.50
2023-04-18T09:38:07.993Z,0.30
2023-04-18T09:40:35.366Z,0.35
2023-04-18T09:43:18.171Z,0.30
2023-04-18T09:45:47.551Z,0.30
2023-04-18T09:48:14.983Z,0.30
2023-04-18T09:50:43.128Z,0.38
2023-04-18T09:53:11.657Z,0.30
2023-04-18T09:55:40.065Z,0.20
2023-04-18T09:58:08.705Z,0.20
2023-04-18T10:00:38.204Z,0.30
2023-04-18T10:03:10.403Z,0.40
2023-04-18T10:05:41.004Z,0.35
2023-04-18T10:08:09.464Z,0.40
2023-04-18T10:10:38.514Z,0.30
2023-04-18T10:13:11.568Z,0.20
2023-04-18T10:15:38.998Z,0.30
2023-04-18T10:18:13.970Z,0.30
2023-04-18T10:20:42.189Z,0.28
2023-04-18T10:23:31.127Z,0.20
2023-04-18T10:25:59.259Z,0.25
2023-04-18T10:28:27.936Z,0.20
2023-04-18T10:31:05.497Z,0.20
2023-04-18T10:33:37.167Z,0.20
2023-04-18T10:36:09.388Z,0.20
2023-04-18T10:38:45.207Z,0.20
2023-04-18T10:41:28.385Z,0.20
2023-04-18T10:44:24.920Z,0.20
2023-04-18T10:46:52.082Z,0.20
2023-04-18T10:49:22.281Z,0.20
2023-04-18T10:51:58.888Z,0.20
2023-04-18T10:54:41.642Z,0.13
2023-04-18T10:57:10.059Z,0.20
2023-04-18T10:59:42.891Z,0.20
2023-04-18T11:02:30.737Z,0.20
2023-04-18T11:05:00.171Z,0.20
2023-04-18T11:07:48.337Z,0.20
2023-04-18T11:10:24.540Z,0.20
2023-04-18T11:12:52.544Z,0.20
2023-04-18T11:15:25.104Z,0.20
2023-04-18T11:17:58.305Z,0.20
2023-04-18T11:20:26.500Z,0.30
2023-04-18T11:22:58.637Z,0.20
2023-04-18T11:25:31.938Z,0.20
2023-04-18T11:28:01.121Z,0.20
2023-04-18T11:30:36.161Z,0.20
2023-04-18T11:33:11.582Z,0.20
2023-04-18T11:35:43.299Z,0.20
2023-04-18T11:38:12.965Z,0.20
2023-04-18T11:40:47.063Z,0.17
2023-04-18T11:43:24.227Z,0.20
2023-04-18T11:45:59.553Z,0.20
2023-04-18T11:48:43.074Z,0.20
2023-04-18T11:51:34.079Z,0.30
2023-04-18T11:54:01.978Z,0.65
2023-04-18T11:56:29.240Z,0.20
2023-04-18T11:58:56.411Z,0.20
2023-04-18T12:01:25.523Z,0.30
2023-04-18T12:04:06.602Z,0.30
2023-04-18T12:06:50.568Z,0.30
2023-04-18T12:09:19.141Z,0.20
2023-04-18T12:11:58.396Z,0.30
2023-04-18T12:14:25.635Z,0.20
2023-04-18T12:16:52.758Z,0.30
2023-04-18T12:19:20.768Z,0.30
2023-04-18T12:22:02.007Z,0.30
2023-04-18T12:24:29.235Z,0.30
2023-04-18T12:26:57.817Z,0.40
2023-04-18T12:29:25.676Z,0.30
2023-04-18T12:31:53.135Z,0.20
2023-04-18T12:34:20.783Z,0.30
2023-04-18T12:36:47.842Z,0.20
2023-04-18T12:39:14.924Z,0.20
2023-04-18T12:41:42.021Z,0.30
2023-04-18T12:44:09.264Z,0.20
2023-04-18T12:46:36.493Z,0.20
2023-04-18T12:49:04.425Z,0.25
2023-04-18T12:51:31.535Z,0.20
2023-04-18T12:53:58.659Z,0.20
2023-04-18T12:56:25.786Z,0.20
2023-04-18T12:58:52.859Z,0.20
2023-04-18T13:01:19.988Z,0.20
2023-04-18T13:03:56.409Z,0.10
2023-04-18T13:06:31.459Z,0.20
2023-04-18T13:08:58.766Z,0.20
2023-04-18T13:11:28.486Z,0.30
2023-04-18T13:13:55.642Z,0.38
2023-04-18T13:16:22.820Z,0.20
2023-04-18T13:18:49.891Z,0.20
2023-04-18T13:21:17.049Z,0.20
2023-04-18T13:23:44.131Z,0.30
2023-04-18T13:26:11.188Z,0.30
2023-04-18T13:28:38.247Z,0.20
2023-04-18T13:31:05.934Z,0.30
2023-04-18T13:33:33.004Z,0.30
2023-04-18T13:36:00.058Z,0.20
2023-04-18T13:38:27.978Z,0.20
2023-04-18T13:41:08.631Z,0.20
2023-04-18T13:43:39.240Z,0.20
2023-04-18T13:46:06.513Z,0.20
2023-04-18T13:48:33.647Z,0.30
2023-04-18T13:51:00.726Z,0.35
2023-04-18T13:53:29.513Z,0.30
2023-04-18T13:55:57.889Z,0.20
2023-04-18T13:58:25.549Z,0.30
2023-04-18T14:00:52.811Z,0.30
2023-04-18T14:03:20.459Z,0.30
2023-04-18T14:05:47.620Z,0.30
2023-04-18T14:08:14.704Z,0.40
2023-04-18T14:10:41.860Z,0.40
2023-04-18T14:13:09.000Z,0.40
2023-04-18T14:15:36.070Z,0.30
2023-04-18T14:18:03.235Z,0.30
2023-04-18T14:20:34.330Z,0.20
2023-04-18T14:23:01.916Z,0.20
2023-04-18T14:25:30.098Z,0.20
2023-04-18T14:28:09.526Z,0.20
2023-04-18T14:30:38.093Z,0.20
2023-04-18T14:33:05.964Z,0.20
2023-04-18T14:35:33.358Z,0.20
2023-04-18T14:38:00.497Z,0.20
2023-04-18T14:40:27.661Z,0.20
2023-04-18T14:42:54.727Z,0.20
2023-04-18T14:45:22.081Z,0.30
2023-04-18T14:47:49.298Z,0.20
2023-04-18T14:50:16.413Z,0.20
2023-04-18T14:52:44.777Z,0.20
2023-04-18T14:55:11.972Z,0.25
2023-04-18T14:57:39.862Z,0.20
2023-04-18T15:00:12.403Z,0.20
2023-04-18T15:02:39.947Z,0.20
2023-04-18T15:05:11.313Z,0.30
2023-04-18T15:07:38.786Z,0.20
2023-04-18T15:10:06.499Z,0.30
2023-04-18T15:12:33.652Z,0.20
2023-04-18T15:15:00.758Z,0.28
2023-04-18T15:17:28.281Z,0.20
2023-04-18T15:19:55.380Z,0.20
2023-04-18T15:22:22.721Z,0.20
2023-04-18T15:24:49.862Z,0.30
2023-04-18T15:27:17.070Z,0.20
2023-04-18T15:29:44.116Z,0.20
2023-04-18T15:32:12.661Z,0.20
2023-04-18T15:34:39.811Z,0.20
2023-04-18T15:37:06.954Z,0.20
2023-04-18T15:39:34.084Z,0.30
2023-04-18T15:42:02.119Z,0.30
2023-04-18T15:44:30.515Z,0.30
2023-04-18T15:46:58.298Z,0.40
2023-04-18T15:49:25.680Z,0.40
2023-04-18T15:51:52.749Z,0.30
2023-04-18T15:54:19.833Z,0.25
2023-04-18T15:56:46.906Z,0.20
2023-04-18T15:59:14.617Z,0.30
2023-04-18T16:01:44.443Z,0.30
2023-04-18T16:04:13.214Z,0.40
2023-04-18T16:06:40.650Z,0.30
2023-04-18T16:09:08.039Z,0.30
2023-04-18T16:11:35.091Z,0.40
2023-04-18T16:14:02.166Z,0.60
2023-04-18T16:16:29.353Z,0.60
2023-04-18T16:18:56.426Z,0.40
2023-04-18T16:21:23.546Z,0.40
2023-04-18T16:23:50.616Z,0.60
2023-04-18T16:26:17.720Z,0.60
2023-04-18T16:28:45.011Z,0.50
2023-04-18T16:31:14.501Z,0.40
2023-04-18T16:33:41.703Z,0.50
2023-04-18T16:36:09.161Z,0.60
2023-04-18T16:38:36.240Z,0.55
2023-04-18T16:41:03.647Z,0.40
2023-04-18T16:43:31.021Z,0.50
2023-04-18T16:46:00.122Z,0.40
2023-04-18T16:48:28.871Z,0.50
2023-04-18T16:50:56.434Z,0.57
2023-04-18T16:53:24.100Z,0.47
2023-04-18T16:55:52.937Z,0.40
2023-04-18T16:58:21.378Z,0.30
2023-04-18T17:00:48.489Z,0.65
2023-04-18T17:03:15.763Z,0.50
2023-04-18T17:05:42.907Z,0.50
2023-04-18T17:08:10.103Z,0.50
2023-04-18T17:10:37.208Z,0.50
2023-04-18T17:13:04.652Z,0.50
2023-04-18T17:15:31.797Z,0.55
2023-04-18T17:18:01.002Z,0.50
2023-04-18T17:20:28.347Z,0.40
2023-04-18T17:22:55.531Z,0.40
2023-04-18T17:25:22.622Z,0.30
2023-04-18T17:27:49.700Z,0.40
2023-04-18T17:30:16.846Z,0.50
2023-04-18T17:32:45.913Z,0.40
2023-04-18T17:35:14.594Z,0.32
2023-04-18T17:37:44.651Z,0.40
2023-04-18T17:40:12.135Z,0.40
2023-04-18T17:42:42.499Z,0.30
2023-04-18T17:45:10.522Z,0.32
2023-04-18T17:47:37.731Z,0.30
2023-04-18T17:50:05.613Z,0.30
2023-04-18T17:52:33.057Z,0.30
2023-04-18T17:55:03.914Z,0.30
2023-04-18T17:57:33.401Z,0.30
2023-04-18T18:00:00.663Z,0.20
2023-04-18T18:02:30.567Z,0.20
2023-04-18T18:04:57.786Z,0.30
2023-04-18T18:07:24.882Z,0.30
2023-04-18T18:09:52.427Z,0.20
2023-04-18T18:12:19.569Z,0.20
2023-04-18T18:14:46.619Z,0.20
2023-04-18T18:17:13.733Z,0.20
2023-04-18T18:19:40.882Z,0.20
2023-04-18T18:22:08.357Z,0.20
2023-04-18T18:24:35.529Z,0.20
2023-04-18T18:27:02.564Z,0.20
2023-04-18T18:29:29.631Z,0.20
2023-04-18T18:31:56.691Z,0.20
2023-04-18T18:34:23.816Z,0.30
2023-04-18T18:36:50.976Z,0.20
2023-04-18T18:39:18.073Z,0.20
2023-04-18T18:41:45.216Z,0.20
2023-04-18T18:44:12.296Z,0.20
2023-04-18T18:46:39.790Z,0.20
2023-04-18T18:49:08.336Z,0.20
2023-04-18T18:51:35.656Z,0.20
2023-04-18T18:54:02.767Z,0.20
2023-04-18T18:56:29.882Z,0.20
2023-04-18T18:58:56.927Z,0.20
2023-04-18T19:01:24.424Z,0.20
2023-04-18T19:03:51.646Z,0.20
2023-04-18T19:06:18.790Z,0.20
2023-04-18T19:08:45.856Z,0.20
2023-04-18T19:11:12.989Z,0.20
2023-04-18T19:13:40.066Z,0.20
2023-04-18T19:16:07.177Z,0.20
2023-04-18T19:18:34.323Z,0.20
2023-04-18T19:21:02.221Z,0.20
2023-04-18T19:23:30.813Z,0.25
2023-04-18T19:25:57.886Z,0.20
2023-04-18T19:28:25.693Z,0.30
2023-04-18T19:30:53.039Z,0.20
2023-04-18T19:33:21.081Z,0.20
2023-04-18T19:35:48.173Z,0.20
2023-04-18T19:38:15.283Z,0.20
2023-04-18T19:40:42.803Z,0.20
2023-04-18T19:43:09.859Z,0.20
2023-04-18T19:45:36.949Z,0.20
2023-04-18T19:48:04.178Z,0.20
2023-04-18T19:50:31.298Z,0.20
2023-04-18T19:52:58.361Z,0.30
2023-04-18T19:55:25.439Z,0.20
2023-04-18T19:57:58.792Z,0.30
2023-04-18T20:00:26.318Z,0.20
2023-04-18T20:02:54.320Z,0.20
2023-04-18T20:05:21.760Z,0.20
2023-04-18T20:07:49.079Z,0.20
2023-04-18T20:10:19.316Z,0.13
2023-04-18T20:12:48.210Z,0.20
2023-04-18T20:15:16.627Z,0.17
2023-04-18T20:17:43.752Z,0.20
2023-04-18T20:20:11.552Z,0.20
2023-04-18T20:22:40.249Z,0.20
2023-04-18T20:25:07.707Z,0.20
2023-04-18T20:27:34.773Z,0.20
2023-04-18T20:30:01.981Z,0.20
2023-04-18T20:32:29.177Z,0.20
2023-04-18T20:34:57.180Z,0.20
2023-04-18T20:37:24.447Z,0.20
2023-04-18T20:39:52.757Z,0.20
2023-04-18T20:42:19.848Z,0.20
2023-04-18T20:44:47.647Z,0.30
2023-04-18T20:47:15.781Z,0.20
2023-04-18T20:49:43.179Z,0.30
2023-04-18T20:52:10.369Z,0.20
2023-04-18T20:54:37.504Z,0.20
2023-04-18T20:57:04.552Z,0.30
2023-04-18T20:59:31.602Z,0.20
2023-04-18T21:01:58.767Z,0.30
2023-04-18T21:04:26.941Z,0.20
2023-04-18T21:06:54.166Z,0.30
2023-04-18T21:09:21.269Z,0.20
2023-04-18T21:11:48.332Z,0.30
2023-04-18T21:14:17.034Z,0.20
2023-04-18T21:16:44.284Z,0.30
2023-04-18T21:19:11.559Z,0.20
2023-04-18T21:21:38.654Z,0.30
2023-04-18T21:24:05.907Z,0.20
2023-04-18T21:26:32.999Z,0.20
2023-04-18T21:29:06.454Z,0.20
2023-04-18T21:31:34.960Z,0.20
2023-04-18T21:34:04.173Z,0.20
2023-04-18T21:36:32.297Z,0.30
2023-04-18T21:39:00.841Z,0.20
2023-04-18T21:41:28.345Z,0.20
2023-04-18T21:43:55.597Z,0.20
2023-04-18T21:46:22.798Z,0.20
2023-04-18T21:48:50.161Z,0.23
2023-04-18T21:51:17.558Z,0.20
2023-04-18T21:53:44.713Z,0.30
2023-04-18T21:56:12.109Z,0.20
2023-04-18T21:58:39.219Z,0.20
2023-04-18T22:01:06.436Z,0.20
2023-04-18T22:03:34.403Z,0.20
2023-04-18T22:06:01.965Z,0.20
2023-04-18T22:08:29.386Z,0.20
2023-04-18T22:10:58.863Z,0.20
2023-04-18T22:13:29.836Z,0.20
2023-04-18T22:15:58.129Z,0.20
2023-04-18T22:18:25.314Z,0.15
2023-04-18T22:20:53.531Z,0.20
2023-04-18T22:23:20.835Z,0.20
2023-04-18T22:25:48.480Z,0.20
2023-04-18T22:28:15.558Z,0.20
2023-04-18T22:30:42.661Z,0.30
2023-04-18T22:33:09.815Z,0.20
2023-04-18T22:35:36.897Z,0.20
2023-04-18T22:38:03.981Z,0.20
2023-04-18T22:40:31.069Z,0.20
2023-04-18T22:42:58.126Z,0.30
2023-04-18T22:45:25.245Z,0.20
2023-04-18T22:47:52.306Z,0.20
2023-04-18T22:50:19.528Z,0.30
2023-04-18T22:52:46.587Z,0.20
2023-04-18T22:55:16.324Z,0.30
2023-04-18T22:57:43.452Z,0.20
2023-04-18T23:00:11.222Z,0.30
2023-04-18T23:02:38.488Z,0.40
2023-04-18T23:05:07.290Z,0.30
2023-04-18T23:07:34.387Z,0.20
2023-04-18T23:10:01.547Z,0.30
2023-04-18T23:12:28.819Z,0.30
2023-04-18T23:14:55.875Z,0.30
2023-04-18T23:17:22.968Z,0.30
2023-04-18T23:19:50.192Z,0.30
2023-04-18T23:22:17.312Z,0.20
2023-04-18T23:24:44.373Z,0.30
2023-04-18T23:27:11.470Z,0.30
2023-04-18T23:29:39.209Z,0.30
2023-04-18T23:32:06.605Z,0.30
2023-04-18T23:34:33.702Z,0.30
2023-04-18T23:37:00.797Z,0.30
2023-04-18T23:39:28.850Z,0.30
2023-04-18T23:41:56.190Z,0.30
2023-04-18T23:44:23.436Z,0.20
2023-04-18T23:46:50.602Z,0.20
2023-04-18T23:49:17.742Z,0.20
2023-04-18T23:51:44.865Z,0.30
2023-04-18T23:54:11.949Z,0.20
2023-04-18T23:56:39.004Z,0.20
2023-04-18T23:59:06.455Z,0.20
